sensor_id;sensor_type;location;lat;lon;timestamp;temperature;humidity
18043;DHT22;9146;48.074;11.968;2023-03-13T00:02:26;3.00;99.90
18043;DHT22;9146;48.074;11.968;2023-03-13T00:04:54;3.00;99.90
18043;DHT22;9146;48.074;11.968;2023-03-13T00:07:21;2.90;99.90
18043;DHT22;9146;48.074;11.968;2023-03-13T00:09:48;2.90;99.90
18043;DHT22;9146;48.074;11.968;2023-03-13T00:12:15;2.90;99.90
18043;DHT22;9146;48.074;11.968;2023-03-13T00:14:42;2.80;99.90
18043;DHT22;9146;48.074;11.968;2023-03-13T00:17:09;2.80;99.90
18043;DHT22;9146;48.074;11.968;2023-03-13T00:19:36;2.70;99.90
18043;DHT22;9146;48.074;11.968;2023-03-13T00:22:05;2.70;99.90
18043;DHT22;9146;48.074;11.968;2023-03-13T00:24:31;2.60;99.90
18043;DHT22;9146;48.074;11.968;2023-03-13T00:26:58;2.50;99.90
18043;DHT22;9146;48.074;11.968;2023-03-13T00:29:27;2.50;99.90
18043;DHT22;9146;48.074;11.968;2023-03-13T00:31:54;2.40;99.90
18043;DHT22;9146;48.074;11.968;2023-03-13T00:34:21;2.30;99.90
18043;DHT22;9146;48.074;11.968;2023-03-13T00:36:48;2.30;99.90
18043;DHT22;9146;48.074;11.968;2023-03-13T00:39:16;2.30;99.90
18043;DHT22;9146;48.074;11.968;2023-03-13T00:41:43;2.20;99.90
18043;DHT22;9146;48.074;11.968;2023-03-13T00:44:10;2.20;99.90
18043;DHT22;9146;48.074;11.968;2023-03-13T00:46:37;2.20;99.90
18043;DHT22;9146;48.074;11.968;2023-03-13T00:49:04;2.10;99.90
18043;DHT22;9146;48.074;11.968;2023-03-13T00:51:31;2.10;99.90
18043;DHT22;9146;48.074;11.968;2023-03-13T00:53:58;2.00;99.90
18043;DHT22;9146;48.074;11.968;2023-03-13T00:56:27;2.00;99.90
18043;DHT22;9146;48.074;11.968;2023-03-13T00:58:54;1.90;99.90
18043;DHT22;9146;48.074;11.968;2023-03-13T01:01:23;1.90;99.90
18043;DHT22;9146;48.074;11.968;2023-03-13T01:03:51;1.90;99.90
18043;DHT22;9146;48.074;11.968;2023-03-13T01:06:20;1.90;99.90
18043;DHT22;9146;48.074;11.968;2023-03-13T01:08:47;1.80;99.90
18043;DHT22;9146;48.074;11.968;2023-03-13T01:11:16;1.80;99.90
18043;DHT22;9146;48.074;11.968;2023-03-13T01:13:45;1.80;99.90
18043;DHT22;9146;48.074;11.968;2023-03-13T01:16:14;1.70;99.90
18043;DHT22;9146;48.074;11.968;2023-03-13T01:18:43;1.80;99.90
18043;DHT22;9146;48.074;11.968;2023-03-13T01:21:11;1.70;99.90
18043;DHT22;9146;48.074;11.968;2023-03-13T01:23:38;1.70;99.90
18043;DHT22;9146;48.074;11.968;2023-03-13T01:26:07;1.70;99.90
18043;DHT22;9146;48.074;11.968;2023-03-13T01:28:34;1.70;99.90
18043;DHT22;9146;48.074;11.968;2023-03-13T01:31:11;1.70;99.90
18043;DHT22;9146;48.074;11.968;2023-03-13T01:33:38;1.70;99.90
18043;DHT22;9146;48.074;11.968;2023-03-13T01:36:06;1.70;99.90
18043;DHT22;9146;48.074;11.968;2023-03-13T01:38:34;1.70;99.90
18043;DHT22;9146;48.074;11.968;2023-03-13T01:41:01;1.80;99.90
18043;DHT22;9146;48.074;11.968;2023-03-13T01:43:29;1.70;99.90
18043;DHT22;9146;48.074;11.968;2023-03-13T01:46:03;1.70;99.90
18043;DHT22;9146;48.074;11.968;2023-03-13T01:48:37;1.60;99.90
18043;DHT22;9146;48.074;11.968;2023-03-13T01:51:08;1.60;99.90
18043;DHT22;9146;48.074;11.968;2023-03-13T01:53:39;1.60;99.90
18043;DHT22;9146;48.074;11.968;2023-03-13T01:56:12;1.60;99.90
18043;DHT22;9146;48.074;11.968;2023-03-13T01:58:40;1.50;99.90
18043;DHT22;9146;48.074;11.968;2023-03-13T02:01:08;1.60;99.90
18043;DHT22;9146;48.074;11.968;2023-03-13T02:03:37;1.60;99.90
18043;DHT22;9146;48.074;11.968;2023-03-13T02:06:05;1.60;99.90
18043;DHT22;9146;48.074;11.968;2023-03-13T02:08:35;1.60;99.90
18043;DHT22;9146;48.074;11.968;2023-03-13T02:11:09;1.70;99.90
18043;DHT22;9146;48.074;11.968;2023-03-13T02:13:39;1.60;99.90
18043;DHT22;9146;48.074;11.968;2023-03-13T02:16:07;1.70;99.90
18043;DHT22;9146;48.074;11.968;2023-03-13T02:18:36;1.60;99.90
18043;DHT22;9146;48.074;11.968;2023-03-13T02:21:09;1.60;99.90
18043;DHT22;9146;48.074;11.968;2023-03-13T02:23:41;1.60;99.90
18043;DHT22;9146;48.074;11.968;2023-03-13T02:26:10;1.60;99.90
18043;DHT22;9146;48.074;11.968;2023-03-13T02:28:37;1.60;99.90
18043;DHT22;9146;48.074;11.968;2023-03-13T02:31:05;1.60;99.90
18043;DHT22;9146;48.074;11.968;2023-03-13T02:33:35;1.60;99.90
18043;DHT22;9146;48.074;11.968;2023-03-13T02:36:03;1.60;99.90
18043;DHT22;9146;48.074;11.968;2023-03-13T02:38:33;1.70;99.90
18043;DHT22;9146;48.074;11.968;2023-03-13T02:41:01;1.70;99.90
18043;DHT22;9146;48.074;11.968;2023-03-13T02:43:32;1.70;99.90
18043;DHT22;9146;48.074;11.968;2023-03-13T02:46:01;1.70;99.90
18043;DHT22;9146;48.074;11.968;2023-03-13T02:48:31;1.70;99.90
18043;DHT22;9146;48.074;11.968;2023-03-13T02:50:59;1.70;99.90
18043;DHT22;9146;48.074;11.968;2023-03-13T02:53:27;1.70;99.90
18043;DHT22;9146;48.074;11.968;2023-03-13T02:55:54;1.70;99.90
18043;DHT22;9146;48.074;11.968;2023-03-13T02:58:23;1.70;99.90
18043;DHT22;9146;48.074;11.968;2023-03-13T03:00:52;1.80;99.90
18043;DHT22;9146;48.074;11.968;2023-03-13T03:03:18;1.80;99.90
18043;DHT22;9146;48.074;11.968;2023-03-13T03:05:45;1.80;99.90
18043;DHT22;9146;48.074;11.968;2023-03-13T03:08:12;1.80;99.90
18043;DHT22;9146;48.074;11.968;2023-03-13T03:10:39;1.90;99.90
18043;DHT22;9146;48.074;11.968;2023-03-13T03:13:06;1.90;99.90
18043;DHT22;9146;48.074;11.968;2023-03-13T03:15:33;1.90;99.90
18043;DHT22;9146;48.074;11.968;2023-03-13T03:18:01;1.90;99.90
18043;DHT22;9146;48.074;11.968;2023-03-13T03:20:28;2.00;99.90
18043;DHT22;9146;48.074;11.968;2023-03-13T03:22:55;2.10;99.90
18043;DHT22;9146;48.074;11.968;2023-03-13T03:25:22;2.10;99.90
18043;DHT22;9146;48.074;11.968;2023-03-13T03:27:49;2.10;99.90
18043;DHT22;9146;48.074;11.968;2023-03-13T03:30:17;2.20;99.90
18043;DHT22;9146;48.074;11.968;2023-03-13T03:32:43;2.20;99.90
18043;DHT22;9146;48.074;11.968;2023-03-13T03:35:12;2.20;99.90
18043;DHT22;9146;48.074;11.968;2023-03-13T03:37:39;2.20;99.90
18043;DHT22;9146;48.074;11.968;2023-03-13T03:40:06;2.20;99.90
18043;DHT22;9146;48.074;11.968;2023-03-13T03:42:33;2.20;99.90
18043;DHT22;9146;48.074;11.968;2023-03-13T03:45:00;2.20;99.90
18043;DHT22;9146;48.074;11.968;2023-03-13T03:47:27;2.20;99.90
18043;DHT22;9146;48.074;11.968;2023-03-13T03:49:54;2.30;99.90
18043;DHT22;9146;48.074;11.968;2023-03-13T03:52:23;2.20;99.90
18043;DHT22;9146;48.074;11.968;2023-03-13T03:54:50;2.20;99.90
18043;DHT22;9146;48.074;11.968;2023-03-13T03:57:17;2.20;99.90
18043;DHT22;9146;48.074;11.968;2023-03-13T03:59:44;2.20;99.90
18043;DHT22;9146;48.074;11.968;2023-03-13T04:02:10;2.30;99.90
18043;DHT22;9146;48.074;11.968;2023-03-13T04:04:37;2.30;99.90
18043;DHT22;9146;48.074;11.968;2023-03-13T04:07:04;2.30;99.90
18043;DHT22;9146;48.074;11.968;2023-03-13T04:09:33;2.30;99.90
18043;DHT22;9146;48.074;11.968;2023-03-13T04:11:59;2.30;99.90
18043;DHT22;9146;48.074;11.968;2023-03-13T04:14:26;2.30;99.90
18043;DHT22;9146;48.074;11.968;2023-03-13T04:16:53;2.30;99.90
18043;DHT22;9146;48.074;11.968;2023-03-13T04:19:20;2.30;99.90
18043;DHT22;9146;48.074;11.968;2023-03-13T04:21:47;2.20;99.90
18043;DHT22;9146;48.074;11.968;2023-03-13T04:24:14;2.20;99.90
18043;DHT22;9146;48.074;11.968;2023-03-13T04:26:43;2.20;99.90
18043;DHT22;9146;48.074;11.968;2023-03-13T04:29:10;2.20;99.90
18043;DHT22;9146;48.074;11.968;2023-03-13T04:31:37;2.30;99.90
18043;DHT22;9146;48.074;11.968;2023-03-13T04:34:03;2.20;99.90
18043;DHT22;9146;48.074;11.968;2023-03-13T04:36:30;2.10;99.90
18043;DHT22;9146;48.074;11.968;2023-03-13T04:38:57;2.10;99.90
18043;DHT22;9146;48.074;11.968;2023-03-13T04:41:24;2.10;99.90
18043;DHT22;9146;48.074;11.968;2023-03-13T04:43:52;2.10;99.90
18043;DHT22;9146;48.074;11.968;2023-03-13T04:46:19;2.10;99.90
18043;DHT22;9146;48.074;11.968;2023-03-13T04:48:46;2.00;99.90
18043;DHT22;9146;48.074;11.968;2023-03-13T04:51:13;2.00;99.90
18043;DHT22;9146;48.074;11.968;2023-03-13T04:53:40;2.00;99.90
18043;DHT22;9146;48.074;11.968;2023-03-13T04:56:07;2.00;99.90
18043;DHT22;9146;48.074;11.968;2023-03-13T04:58:34;2.00;99.90
18043;DHT22;9146;48.074;11.968;2023-03-13T05:01:03;1.90;99.90
18043;DHT22;9146;48.074;11.968;2023-03-13T05:03:30;1.90;99.90
18043;DHT22;9146;48.074;11.968;2023-03-13T05:05:56;1.90;99.90
18043;DHT22;9146;48.074;11.968;2023-03-13T05:08:23;1.90;99.90
18043;DHT22;9146;48.074;11.968;2023-03-13T05:10:50;1.90;99.90
18043;DHT22;9146;48.074;11.968;2023-03-13T05:13:18;2.00;99.90
18043;DHT22;9146;48.074;11.968;2023-03-13T05:15:44;2.00;99.90
18043;DHT22;9146;48.074;11.968;2023-03-13T05:18:13;2.10;99.90
18043;DHT22;9146;48.074;11.968;2023-03-13T05:20:40;2.10;99.90
18043;DHT22;9146;48.074;11.968;2023-03-13T05:23:07;2.20;99.90
18043;DHT22;9146;48.074;11.968;2023-03-13T05:25:34;2.20;99.90
18043;DHT22;9146;48.074;11.968;2023-03-13T05:28:01;2.30;99.90
18043;DHT22;9146;48.074;11.968;2023-03-13T05:30:28;2.30;99.90
18043;DHT22;9146;48.074;11.968;2023-03-13T05:32:55;2.30;99.90
18043;DHT22;9146;48.074;11.968;2023-03-13T05:35:23;2.40;99.90
18043;DHT22;9146;48.074;11.968;2023-03-13T05:37:50;2.40;99.90
18043;DHT22;9146;48.074;11.968;2023-03-13T05:40:17;2.40;99.90
18043;DHT22;9146;48.074;11.968;2023-03-13T05:42:44;2.40;99.90
18043;DHT22;9146;48.074;11.968;2023-03-13T05:45:12;2.50;99.90
18043;DHT22;9146;48.074;11.968;2023-03-13T05:47:39;2.50;99.90
18043;DHT22;9146;48.074;11.968;2023-03-13T05:50:07;2.50;99.90
18043;DHT22;9146;48.074;11.968;2023-03-13T05:52:35;2.60;99.90
18043;DHT22;9146;48.074;11.968;2023-03-13T05:55:02;2.60;99.90
18043;DHT22;9146;48.074;11.968;2023-03-13T05:57:29;2.60;99.90
18043;DHT22;9146;48.074;11.968;2023-03-13T05:59:56;2.60;99.90
18043;DHT22;9146;48.074;11.968;2023-03-13T06:02:24;2.70;99.90
18043;DHT22;9146;48.074;11.968;2023-03-13T06:04:50;2.70;99.90
18043;DHT22;9146;48.074;11.968;2023-03-13T06:07:17;2.80;99.90
18043;DHT22;9146;48.074;11.968;2023-03-13T06:09:46;2.90;99.90
18043;DHT22;9146;48.074;11.968;2023-03-13T06:12:13;3.00;99.90
18043;DHT22;9146;48.074;11.968;2023-03-13T06:14:40;3.00;99.90
18043;DHT22;9146;48.074;11.968;2023-03-13T06:17:07;3.10;99.90
18043;DHT22;9146;48.074;11.968;2023-03-13T06:19:34;3.20;99.90
18043;DHT22;9146;48.074;11.968;2023-03-13T06:22:01;3.30;99.90
18043;DHT22;9146;48.074;11.968;2023-03-13T06:24:28;3.30;99.90
18043;DHT22;9146;48.074;11.968;2023-03-13T06:26:56;3.40;99.90
18043;DHT22;9146;48.074;11.968;2023-03-13T06:29:23;3.40;99.90
18043;DHT22;9146;48.074;11.968;2023-03-13T06:31:50;3.50;99.90
18043;DHT22;9146;48.074;11.968;2023-03-13T06:34:17;3.60;99.90
18043;DHT22;9146;48.074;11.968;2023-03-13T06:36:44;3.60;99.90
18043;DHT22;9146;48.074;11.968;2023-03-13T06:39:11;3.80;99.90
18043;DHT22;9146;48.074;11.968;2023-03-13T06:41:38;3.90;99.90
18043;DHT22;9146;48.074;11.968;2023-03-13T06:44:06;3.90;99.90
18043;DHT22;9146;48.074;11.968;2023-03-13T06:46:33;4.00;99.90
18043;DHT22;9146;48.074;11.968;2023-03-13T06:49:00;4.10;99.90
18043;DHT22;9146;48.074;11.968;2023-03-13T06:51:30;4.20;99.90
18043;DHT22;9146;48.074;11.968;2023-03-13T06:53:58;4.20;99.90
18043;DHT22;9146;48.074;11.968;2023-03-13T06:56:25;4.30;99.90
18043;DHT22;9146;48.074;11.968;2023-03-13T06:58:51;4.30;99.90
18043;DHT22;9146;48.074;11.968;2023-03-13T07:01:20;4.30;99.90
18043;DHT22;9146;48.074;11.968;2023-03-13T07:03:47;4.30;99.90
18043;DHT22;9146;48.074;11.968;2023-03-13T07:06:15;4.30;99.90
18043;DHT22;9146;48.074;11.968;2023-03-13T07:08:43;4.40;99.90
18043;DHT22;9146;48.074;11.968;2023-03-13T07:11:12;4.40;99.90
18043;DHT22;9146;48.074;11.968;2023-03-13T07:13:39;4.50;99.90
18043;DHT22;9146;48.074;11.968;2023-03-13T07:16:08;4.50;99.90
18043;DHT22;9146;48.074;11.968;2023-03-13T07:18:39;4.50;99.90
18043;DHT22;9146;48.074;11.968;2023-03-13T07:21:09;4.50;99.90
18043;DHT22;9146;48.074;11.968;2023-03-13T07:23:36;4.60;99.90
18043;DHT22;9146;48.074;11.968;2023-03-13T07:26:05;4.70;99.90
18043;DHT22;9146;48.074;11.968;2023-03-13T07:28:33;4.70;99.90
18043;DHT22;9146;48.074;11.968;2023-03-13T07:31:04;4.70;99.90
18043;DHT22;9146;48.074;11.968;2023-03-13T07:33:32;4.70;99.90
18043;DHT22;9146;48.074;11.968;2023-03-13T07:36:00;4.70;99.90
18043;DHT22;9146;48.074;11.968;2023-03-13T07:38:27;4.70;99.90
18043;DHT22;9146;48.074;11.968;2023-03-13T07:40:56;4.70;99.90
18043;DHT22;9146;48.074;11.968;2023-03-13T07:43:24;4.80;99.90
18043;DHT22;9146;48.074;11.968;2023-03-13T07:45:53;4.80;99.90
18043;DHT22;9146;48.074;11.968;2023-03-13T07:48:21;4.80;99.90
18043;DHT22;9146;48.074;11.968;2023-03-13T07:50:48;4.90;99.90
18043;DHT22;9146;48.074;11.968;2023-03-13T07:53:17;4.90;99.90
18043;DHT22;9146;48.074;11.968;2023-03-13T07:55:54;5.00;99.90
18043;DHT22;9146;48.074;11.968;2023-03-13T07:58:21;5.00;99.90
18043;DHT22;9146;48.074;11.968;2023-03-13T08:00:49;5.10;99.90
18043;DHT22;9146;48.074;11.968;2023-03-13T08:03:16;5.10;99.90
18043;DHT22;9146;48.074;11.968;2023-03-13T08:05:43;5.10;99.90
18043;DHT22;9146;48.074;11.968;2023-03-13T08:08:10;5.10;99.90
18043;DHT22;9146;48.074;11.968;2023-03-13T08:10:38;5.20;99.90
18043;DHT22;9146;48.074;11.968;2023-03-13T08:13:05;5.20;99.90
18043;DHT22;9146;48.074;11.968;2023-03-13T08:15:32;5.20;99.90
18043;DHT22;9146;48.074;11.968;2023-03-13T08:17:59;5.20;99.90
18043;DHT22;9146;48.074;11.968;2023-03-13T08:20:26;5.20;99.90
18043;DHT22;9146;48.074;11.968;2023-03-13T08:22:55;5.20;99.90
18043;DHT22;9146;48.074;11.968;2023-03-13T08:25:22;5.30;99.90
18043;DHT22;9146;48.074;11.968;2023-03-13T08:27:51;5.50;99.90
18043;DHT22;9146;48.074;11.968;2023-03-13T08:30:18;5.60;99.90
18043;DHT22;9146;48.074;11.968;2023-03-13T08:32:45;5.70;99.90
18043;DHT22;9146;48.074;11.968;2023-03-13T08:35:12;5.90;99.90
18043;DHT22;9146;48.074;11.968;2023-03-13T08:37:39;6.10;99.90
18043;DHT22;9146;48.074;11.968;2023-03-13T08:40:07;6.20;99.90
18043;DHT22;9146;48.074;11.968;2023-03-13T08:42:37;6.40;99.90
18043;DHT22;9146;48.074;11.968;2023-03-13T08:45:07;6.40;99.90
18043;DHT22;9146;48.074;11.968;2023-03-13T08:47:34;6.60;99.90
18043;DHT22;9146;48.074;11.968;2023-03-13T08:50:02;6.70;99.90
18043;DHT22;9146;48.074;11.968;2023-03-13T08:52:29;6.70;99.90
18043;DHT22;9146;48.074;11.968;2023-03-13T08:54:56;6.70;99.90
18043;DHT22;9146;48.074;11.968;2023-03-13T08:57:23;6.70;99.90
18043;DHT22;9146;48.074;11.968;2023-03-13T08:59:50;6.70;99.90
18043;DHT22;9146;48.074;11.968;2023-03-13T09:02:18;6.80;99.90
18043;DHT22;9146;48.074;11.968;2023-03-13T09:04:46;6.80;99.90
18043;DHT22;9146;48.074;11.968;2023-03-13T09:07:14;6.80;99.90
18043;DHT22;9146;48.074;11.968;2023-03-13T09:09:42;6.90;99.90
18043;DHT22;9146;48.074;11.968;2023-03-13T09:12:09;6.90;99.90
18043;DHT22;9146;48.074;11.968;2023-03-13T09:14:36;7.00;99.90
18043;DHT22;9146;48.074;11.968;2023-03-13T09:17:03;7.10;99.90
18043;DHT22;9146;48.074;11.968;2023-03-13T09:19:32;7.20;99.90
18043;DHT22;9146;48.074;11.968;2023-03-13T09:21:58;7.40;99.90
18043;DHT22;9146;48.074;11.968;2023-03-13T09:24:25;7.60;99.90
18043;DHT22;9146;48.074;11.968;2023-03-13T09:26:52;7.90;99.90
18043;DHT22;9146;48.074;11.968;2023-03-13T09:29:19;8.10;99.90
18043;DHT22;9146;48.074;11.968;2023-03-13T09:31:46;8.30;99.90
18043;DHT22;9146;48.074;11.968;2023-03-13T09:34:13;8.50;99.90
18043;DHT22;9146;48.074;11.968;2023-03-13T09:36:41;8.60;99.90
18043;DHT22;9146;48.074;11.968;2023-03-13T09:39:08;8.80;99.90
18043;DHT22;9146;48.074;11.968;2023-03-13T09:41:42;8.90;99.90
18043;DHT22;9146;48.074;11.968;2023-03-13T09:44:14;9.00;99.90
18043;DHT22;9146;48.074;11.968;2023-03-13T09:46:47;9.20;99.90
18043;DHT22;9146;48.074;11.968;2023-03-13T09:49:26;9.30;99.90
18043;DHT22;9146;48.074;11.968;2023-03-13T09:52:01;9.30;99.90
18043;DHT22;9146;48.074;11.968;2023-03-13T09:54:35;9.30;99.90
18043;DHT22;9146;48.074;11.968;2023-03-13T09:57:11;9.40;99.90
18043;DHT22;9146;48.074;11.968;2023-03-13T09:59:44;9.40;99.90
18043;DHT22;9146;48.074;11.968;2023-03-13T10:02:24;9.30;99.90
18043;DHT22;9146;48.074;11.968;2023-03-13T10:04:56;9.30;99.90
18043;DHT22;9146;48.074;11.968;2023-03-13T10:07:27;9.30;99.90
18043;DHT22;9146;48.074;11.968;2023-03-13T10:09:54;9.40;99.90
18043;DHT22;9146;48.074;11.968;2023-03-13T10:12:25;9.50;99.90
18043;DHT22;9146;48.074;11.968;2023-03-13T10:15:06;9.50;99.90
18043;DHT22;9146;48.074;11.968;2023-03-13T10:17:41;9.70;99.90
18043;DHT22;9146;48.074;11.968;2023-03-13T10:20:16;10.00;99.90
18043;DHT22;9146;48.074;11.968;2023-03-13T10:22:50;10.30;99.90
18043;DHT22;9146;48.074;11.968;2023-03-13T10:25:26;10.60;99.90
18043;DHT22;9146;48.074;11.968;2023-03-13T10:27:54;10.90;99.90
18043;DHT22;9146;48.074;11.968;2023-03-13T10:30:24;11.10;99.90
18043;DHT22;9146;48.074;11.968;2023-03-13T10:32:58;11.40;99.90
18043;DHT22;9146;48.074;11.968;2023-03-13T10:35:31;11.60;99.90
18043;DHT22;9146;48.074;11.968;2023-03-13T10:38:04;11.80;99.90
18043;DHT22;9146;48.074;11.968;2023-03-13T10:40:32;12.00;99.90
18043;DHT22;9146;48.074;11.968;2023-03-13T10:43:00;12.10;99.90
18043;DHT22;9146;48.074;11.968;2023-03-13T10:45:32;12.20;99.90
18043;DHT22;9146;48.074;11.968;2023-03-13T10:48:02;12.40;99.90
18043;DHT22;9146;48.074;11.968;2023-03-13T10:50:32;12.50;99.90
18043;DHT22;9146;48.074;11.968;2023-03-13T10:53:20;12.70;99.90
18043;DHT22;9146;48.074;11.968;2023-03-13T10:55:47;12.80;99.90
18043;DHT22;9146;48.074;11.968;2023-03-13T10:58:18;12.80;99.90
18043;DHT22;9146;48.074;11.968;2023-03-13T11:00:46;12.90;99.90
18043;DHT22;9146;48.074;11.968;2023-03-13T11:03:16;13.10;99.90
18043;DHT22;9146;48.074;11.968;2023-03-13T11:05:53;13.20;99.90
18043;DHT22;9146;48.074;11.968;2023-03-13T11:08:24;13.30;99.90
18043;DHT22;9146;48.074;11.968;2023-03-13T11:10:56;13.40;99.90
18043;DHT22;9146;48.074;11.968;2023-03-13T11:13:30;13.50;99.90
18043;DHT22;9146;48.074;11.968;2023-03-13T11:16:05;13.50;99.90
18043;DHT22;9146;48.074;11.968;2023-03-13T11:18:39;13.50;99.90
18043;DHT22;9146;48.074;11.968;2023-03-13T11:21:09;13.50;99.90
18043;DHT22;9146;48.074;11.968;2023-03-13T11:23:48;13.50;99.90
18043;DHT22;9146;48.074;11.968;2023-03-13T11:26:18;13.50;99.90
18043;DHT22;9146;48.074;11.968;2023-03-13T11:28:54;13.60;99.90
18043;DHT22;9146;48.074;11.968;2023-03-13T11:31:24;13.60;99.90
18043;DHT22;9146;48.074;11.968;2023-03-13T11:33:57;13.70;99.90
18043;DHT22;9146;48.074;11.968;2023-03-13T11:36:33;13.90;99.90
18043;DHT22;9146;48.074;11.968;2023-03-13T11:39:17;13.90;99.90
18043;DHT22;9146;48.074;11.968;2023-03-13T11:41:53;14.00;99.90
18043;DHT22;9146;48.074;11.968;2023-03-13T11:44:42;14.00;99.90
18043;DHT22;9146;48.074;11.968;2023-03-13T11:47:24;14.10;99.90
18043;DHT22;9146;48.074;11.968;2023-03-13T11:50:01;14.10;99.90
18043;DHT22;9146;48.074;11.968;2023-03-13T11:52:42;14.20;99.90
18043;DHT22;9146;48.074;11.968;2023-03-13T11:55:25;14.20;99.90
18043;DHT22;9146;48.074;11.968;2023-03-13T11:58:01;14.20;99.90
18043;DHT22;9146;48.074;11.968;2023-03-13T12:00:35;14.10;99.90
18043;DHT22;9146;48.074;11.968;2023-03-13T12:03:10;14.10;99.90
18043;DHT22;9146;48.074;11.968;2023-03-13T12:05:43;14.20;99.90
18043;DHT22;9146;48.074;11.968;2023-03-13T12:08:15;14.20;99.90
18043;DHT22;9146;48.074;11.968;2023-03-13T12:10:49;14.20;99.90
18043;DHT22;9146;48.074;11.968;2023-03-13T12:13:25;14.30;99.90
18043;DHT22;9146;48.074;11.968;2023-03-13T12:15:58;14.40;99.90
18043;DHT22;9146;48.074;11.968;2023-03-13T12:18:30;14.50;99.90
18043;DHT22;9146;48.074;11.968;2023-03-13T12:21:05;14.60;99.90
18043;DHT22;9146;48.074;11.968;2023-03-13T12:23:41;14.70;99.90
18043;DHT22;9146;48.074;11.968;2023-03-13T12:26:12;14.90;99.90
18043;DHT22;9146;48.074;11.968;2023-03-13T12:28:42;15.00;99.90
18043;DHT22;9146;48.074;11.968;2023-03-13T12:31:21;15.20;99.90
18043;DHT22;9146;48.074;11.968;2023-03-13T12:33:55;15.40;99.90
18043;DHT22;9146;48.074;11.968;2023-03-13T12:36:29;15.50;99.90
18043;DHT22;9146;48.074;11.968;2023-03-13T12:39:09;15.70;99.90
18043;DHT22;9146;48.074;11.968;2023-03-13T12:41:42;15.90;99.90
18043;DHT22;9146;48.074;11.968;2023-03-13T12:44:13;16.10;99.90
18043;DHT22;9146;48.074;11.968;2023-03-13T12:46:44;16.30;99.90
18043;DHT22;9146;48.074;11.968;2023-03-13T12:52:37;16.70;99.90
18043;DHT22;9146;48.074;11.968;2023-03-13T12:55:22;16.70;99.90
18043;DHT22;9146;48.074;11.968;2023-03-13T12:58:13;16.70;99.90
18043;DHT22;9146;48.074;11.968;2023-03-13T13:00:45;16.80;99.90
18043;DHT22;9146;48.074;11.968;2023-03-13T13:03:23;16.80;99.90
18043;DHT22;9146;48.074;11.968;2023-03-13T13:06:04;16.80;99.80
18043;DHT22;9146;48.074;11.968;2023-03-13T13:08:35;16.70;99.80
18043;DHT22;9146;48.074;11.968;2023-03-13T13:20:40;16.70;99.90
18043;DHT22;9146;48.074;11.968;2023-03-13T13:23:33;16.60;99.90
18043;DHT22;9146;48.074;11.968;2023-03-13T13:32:39;16.70;99.90
18043;DHT22;9146;48.074;11.968;2023-03-13T13:35:28;16.80;99.90
18043;DHT22;9146;48.074;11.968;2023-03-13T13:38:30;16.80;99.90
18043;DHT22;9146;48.074;11.968;2023-03-13T13:41:04;17.00;99.90
18043;DHT22;9146;48.074;11.968;2023-03-13T13:43:33;17.10;99.90
18043;DHT22;9146;48.074;11.968;2023-03-13T13:46:02;17.20;99.90
18043;DHT22;9146;48.074;11.968;2023-03-13T13:48:35;17.30;99.90
18043;DHT22;9146;48.074;11.968;2023-03-13T13:51:23;17.50;99.90
18043;DHT22;9146;48.074;11.968;2023-03-13T13:53:52;17.70;99.90
18043;DHT22;9146;48.074;11.968;2023-03-13T13:56:41;17.90;99.80
18043;DHT22;9146;48.074;11.968;2023-03-13T13:59:27;18.00;99.50
18043;DHT22;9146;48.074;11.968;2023-03-13T14:02:16;17.90;99.50
18043;DHT22;9146;48.074;11.968;2023-03-13T14:04:50;17.70;99.40
18043;DHT22;9146;48.074;11.968;2023-03-13T14:07:23;17.60;99.70
18043;DHT22;9146;48.074;11.968;2023-03-13T14:10:05;17.50;99.90
18043;DHT22;9146;48.074;11.968;2023-03-13T14:12:34;17.30;99.90
18043;DHT22;9146;48.074;11.968;2023-03-13T14:15:12;17.20;99.90
18043;DHT22;9146;48.074;11.968;2023-03-13T14:17:41;17.10;99.90
18043;DHT22;9146;48.074;11.968;2023-03-13T14:20:23;17.00;99.90
18043;DHT22;9146;48.074;11.968;2023-03-13T14:22:51;16.90;99.90
18043;DHT22;9146;48.074;11.968;2023-03-13T14:25:19;16.80;99.90
18043;DHT22;9146;48.074;11.968;2023-03-13T14:27:47;16.80;99.90
18043;DHT22;9146;48.074;11.968;2023-03-13T14:30:16;16.80;99.90
18043;DHT22;9146;48.074;11.968;2023-03-13T14:32:43;16.80;99.90
18043;DHT22;9146;48.074;11.968;2023-03-13T14:35:14;16.70;99.90
18043;DHT22;9146;48.074;11.968;2023-03-13T14:37:44;16.70;99.90
18043;DHT22;9146;48.074;11.968;2023-03-13T14:40:28;16.60;99.90
18043;DHT22;9146;48.074;11.968;2023-03-13T14:42:56;16.60;99.90
18043;DHT22;9146;48.074;11.968;2023-03-13T14:45:27;16.50;99.90
18043;DHT22;9146;48.074;11.968;2023-03-13T14:48:01;16.40;99.90
18043;DHT22;9146;48.074;11.968;2023-03-13T14:50:28;16.40;99.90
18043;DHT22;9146;48.074;11.968;2023-03-13T14:52:58;16.30;99.90
18043;DHT22;9146;48.074;11.968;2023-03-13T14:55:32;16.30;99.90
18043;DHT22;9146;48.074;11.968;2023-03-13T14:58:01;16.20;99.90
18043;DHT22;9146;48.074;11.968;2023-03-13T15:00:35;16.20;99.90
18043;DHT22;9146;48.074;11.968;2023-03-13T15:03:19;16.20;99.90
18043;DHT22;9146;48.074;11.968;2023-03-13T15:05:48;16.10;99.90
18043;DHT22;9146;48.074;11.968;2023-03-13T15:08:18;16.10;99.90
18043;DHT22;9146;48.074;11.968;2023-03-13T15:10:47;16.10;99.90
18043;DHT22;9146;48.074;11.968;2023-03-13T15:13:16;16.10;99.90
18043;DHT22;9146;48.074;11.968;2023-03-13T15:15:43;16.00;99.90
18043;DHT22;9146;48.074;11.968;2023-03-13T15:18:17;16.00;99.90
18043;DHT22;9146;48.074;11.968;2023-03-13T15:20:48;16.00;99.90
18043;DHT22;9146;48.074;11.968;2023-03-13T15:23:18;15.90;99.90
18043;DHT22;9146;48.074;11.968;2023-03-13T15:25:45;15.90;99.90
18043;DHT22;9146;48.074;11.968;2023-03-13T15:28:14;15.90;99.90
18043;DHT22;9146;48.074;11.968;2023-03-13T15:30:42;15.90;99.90
18043;DHT22;9146;48.074;11.968;2023-03-13T15:33:13;15.80;99.90
18043;DHT22;9146;48.074;11.968;2023-03-13T15:35:41;15.80;99.90
18043;DHT22;9146;48.074;11.968;2023-03-13T15:38:12;15.70;99.90
18043;DHT22;9146;48.074;11.968;2023-03-13T15:40:41;15.70;99.90
18043;DHT22;9146;48.074;11.968;2023-03-13T15:43:09;15.70;99.90
18043;DHT22;9146;48.074;11.968;2023-03-13T15:45:37;15.60;99.90
18043;DHT22;9146;48.074;11.968;2023-03-13T15:48:11;15.60;99.90
18043;DHT22;9146;48.074;11.968;2023-03-13T15:50:40;15.60;99.90
18043;DHT22;9146;48.074;11.968;2023-03-13T15:53:16;15.40;99.90
18043;DHT22;9146;48.074;11.968;2023-03-13T15:55:45;15.40;99.90
18043;DHT22;9146;48.074;11.968;2023-03-13T15:58:13;15.30;99.90
18043;DHT22;9146;48.074;11.968;2023-03-13T16:00:41;15.30;99.90
18043;DHT22;9146;48.074;11.968;2023-03-13T16:03:13;15.20;99.90
18043;DHT22;9146;48.074;11.968;2023-03-13T16:05:41;15.10;99.90
18043;DHT22;9146;48.074;11.968;2023-03-13T16:08:12;15.10;99.90
18043;DHT22;9146;48.074;11.968;2023-03-13T16:10:40;15.00;99.90
18043;DHT22;9146;48.074;11.968;2023-03-13T16:13:09;15.00;99.90
18043;DHT22;9146;48.074;11.968;2023-03-13T16:15:37;14.90;99.90
18043;DHT22;9146;48.074;11.968;2023-03-13T16:18:05;14.90;99.90